createdAt,value
2017-11-07T00:00:10.751Z,37.77
2017-11-07T00:02:38.236Z,31.73
2017-11-07T00:05:06.476Z,39.53
2017-11-07T00:07:33.972Z,39.43
2017-11-07T00:10:02.220Z,46.20
2017-11-07T00:12:29.940Z,42.30
2017-11-07T00:14:57.417Z,39.63
2017-11-07T00:17:24.907Z,35.63
2017-11-07T00:19:52.380Z,37.20
2017-11-07T00:22:20.625Z,39.40
2017-11-07T00:24:48.219Z,35.83
2017-11-07T00:27:16.464Z,39.23
2017-11-07T00:29:43.947Z,44.30
2017-11-07T00:32:12.196Z,35.00
2017-11-07T00:34:39.689Z,44.63
2017-11-07T00:37:07.936Z,42.33
2017-11-07T00:39:35.407Z,41.37
2017-11-07T00:42:02.900Z,38.63
2017-11-07T00:44:30.375Z,52.27
2017-11-07T00:46:57.872Z,43.93
2017-11-07T00:49:25.354Z,43.30
2017-11-07T00:51:53.617Z,46.00
2017-11-07T00:54:21.093Z,40.67
2017-11-07T00:56:49.332Z,43.73
2017-11-07T00:59:16.831Z,45.57
2017-11-07T01:01:45.095Z,40.27
2017-11-07T01:04:13.347Z,47.90
2017-11-07T01:06:40.820Z,53.80
2017-11-07T01:09:09.096Z,48.93
2017-11-07T01:11:36.576Z,49.00
2017-11-07T01:14:04.824Z,45.20
2017-11-07T01:16:32.323Z,43.83
2017-11-07T01:18:59.821Z,56.43
2017-11-07T01:21:27.311Z,44.13
2017-11-07T01:23:54.780Z,52.73
2017-11-07T01:26:23.036Z,41.37
2017-11-07T01:28:50.507Z,44.53
2017-11-07T01:31:18.762Z,47.43
2017-11-07T01:33:46.248Z,38.30
2017-11-07T01:36:14.492Z,40.27
2017-11-07T01:38:42.031Z,29.57
2017-11-07T01:41:09.503Z,31.87
2017-11-07T01:43:36.972Z,35.80
2017-11-07T09:00:15.159Z,21.90
2017-11-07T09:02:42.662Z,18.23
2017-11-07T09:05:11.015Z,24.73
2017-11-07T09:07:38.493Z,20.53
2017-11-07T09:10:06.765Z,26.10
2017-11-07T09:12:35.008Z,23.23
2017-11-07T09:15:02.509Z,20.57
2017-11-07T09:17:30.773Z,28.70
2017-11-07T09:19:59.048Z,24.23
2017-11-07T09:22:27.292Z,26.03
2017-11-07T09:24:54.775Z,28.23
2017-11-07T09:27:22.355Z,22.17
2017-11-07T09:29:50.604Z,24.40
2017-11-07T09:32:18.100Z,34.50
2017-11-07T09:34:45.580Z,24.07
2017-11-07T09:37:13.083Z,24.07
2017-11-07T09:39:40.566Z,22.37
2017-11-07T09:42:08.809Z,24.17
2017-11-07T09:44:36.326Z,23.30
2017-11-07T09:47:03.799Z,25.90
2017-11-07T09:49:31.316Z,25.43
2017-11-07T09:51:59.565Z,25.53
2017-11-07T09:54:27.094Z,25.17
2017-11-07T09:56:54.567Z,28.70
2017-11-07T09:59:22.048Z,23.13
2017-11-07T10:01:49.569Z,23.73
2017-11-07T10:04:17.086Z,25.03
2017-11-07T10:06:45.348Z,27.87
2017-11-07T10:09:12.824Z,22.50
2017-11-07T10:11:41.095Z,27.60
2017-11-07T10:14:09.352Z,30.33
2017-11-07T10:16:36.827Z,27.17
2017-11-07T10:19:05.084Z,25.67
2017-11-07T10:21:32.563Z,29.03
2017-11-07T10:24:00.828Z,26.83
2017-11-07T10:26:28.316Z,27.63
2017-11-07T10:28:55.863Z,26.27
2017-11-07T10:31:24.111Z,30.07
2017-11-07T10:33:51.608Z,38.83
2017-11-07T10:36:19.184Z,32.00
2017-11-07T10:38:46.683Z,32.93
2017-11-07T10:41:14.190Z,34.67
2017-11-07T10:43:41.669Z,35.80
2017-11-07T10:46:09.171Z,31.97
2017-11-07T10:48:37.429Z,32.33
2017-11-07T10:51:04.907Z,36.97
2017-11-07T10:53:32.393Z,34.30
2017-11-07T10:56:00.752Z,37.30
2017-11-07T10:58:29.012Z,41.20
2017-11-07T11:00:56.479Z,37.70
2017-11-07T11:03:24.156Z,40.40
2017-11-07T11:05:52.408Z,33.57
2017-11-07T11:08:19.900Z,38.90
2017-11-07T11:10:48.170Z,40.50
2017-11-07T11:13:16.790Z,37.63
2017-11-07T11:15:44.295Z,37.30
2017-11-07T11:18:11.771Z,31.13
2017-11-07T11:20:40.146Z,32.03
2017-11-07T11:23:08.405Z,30.13
2017-11-07T11:25:35.888Z,34.33
2017-11-07T11:28:04.156Z,33.63
2017-11-07T11:30:32.396Z,40.27
2017-11-07T11:32:59.895Z,33.47
2017-11-07T11:35:28.132Z,34.27
2017-11-07T11:37:55.648Z,32.03
2017-11-07T11:40:23.117Z,33.33
2017-11-07T11:42:50.640Z,29.57
2017-11-07T11:45:18.891Z,33.40
2017-11-07T11:47:46.412Z,25.80
2017-11-07T11:50:13.892Z,30.13
2017-11-07T11:52:41.359Z,25.63
2017-11-07T11:55:08.851Z,26.90
2017-11-07T11:57:37.096Z,27.40
2017-11-07T12:00:04.588Z,29.50
2017-11-07T12:02:32.854Z,28.40
2017-11-07T12:05:01.154Z,28.27
2017-11-07T12:07:29.436Z,34.73
2017-11-07T12:09:56.919Z,27.83
2017-11-07T12:12:24.411Z,33.40
2017-11-07T12:14:51.913Z,32.30
2017-11-07T12:17:19.415Z,31.63
2017-11-07T12:19:46.895Z,31.23
2017-11-07T12:22:14.383Z,33.23
2017-11-07T12:24:41.869Z,38.47
2017-11-07T12:27:09.343Z,31.50
2017-11-07T12:29:36.975Z,32.00
2017-11-07T12:32:04.455Z,35.87
2017-11-07T12:34:31.952Z,41.23
2017-11-07T12:36:59.475Z,28.50
2017-11-07T12:39:26.972Z,35.33
2017-11-07T12:41:54.444Z,35.93
2017-11-07T12:44:22.679Z,33.63
2017-11-07T12:46:50.168Z,48.63
2017-11-07T12:49:18.416Z,38.93
2017-11-07T12:51:57.604Z,40.93
2017-11-07T12:54:25.080Z,37.50
2017-11-07T12:56:52.576Z,38.03
2017-11-07T12:59:20.046Z,40.83
2017-11-07T13:01:47.515Z,34.90
2017-11-07T13:04:15.787Z,38.90
2017-11-07T13:06:44.036Z,37.87
2017-11-07T13:09:11.607Z,39.40
2017-11-07T13:11:39.089Z,34.00
2017-11-07T13:14:07.353Z,36.67
2017-11-07T13:16:34.827Z,36.07
2017-11-07T13:19:03.081Z,42.77
2017-11-07T13:21:30.569Z,37.37
2017-11-07T13:23:58.040Z,39.00
2017-11-07T13:26:25.532Z,61.77
2017-11-07T13:28:53.000Z,43.37
2017-11-07T13:31:26.304Z,43.53
2017-11-07T13:33:54.552Z,45.10
2017-11-07T13:36:22.036Z,39.63
2017-11-07T13:38:49.531Z,37.90
2017-11-07T13:41:17.027Z,36.27
2017-11-07T13:43:44.512Z,84.50
2017-11-07T13:46:11.988Z,47.93
2017-11-07T13:48:40.301Z,41.47
2017-11-07T13:51:07.802Z,47.07
2017-11-07T13:53:35.281Z,46.43
2017-11-07T13:56:03.540Z,43.07
2017-11-07T13:58:31.017Z,41.97
2017-11-07T14:00:59.279Z,55.27
2017-11-07T14:03:26.775Z,50.47
2017-11-07T14:05:54.272Z,46.80
2017-11-07T14:08:21.748Z,45.97
2017-11-07T14:10:49.225Z,41.73
2017-11-07T14:13:17.480Z,42.33
2017-11-07T14:15:44.962Z,44.43
2017-11-07T14:18:13.224Z,47.57
2017-11-07T14:20:40.705Z,51.00
2017-11-07T14:23:08.983Z,56.33
2017-11-07T14:25:37.227Z,47.53
2017-11-07T14:28:04.697Z,46.57
2017-11-07T14:30:32.185Z,44.50
2017-11-07T14:32:59.689Z,51.27
2017-11-07T14:35:27.180Z,44.10
2017-11-07T14:37:55.460Z,50.87
2017-11-07T14:40:23.771Z,46.40
2017-11-07T14:42:51.240Z,46.60
2017-11-07T14:45:18.712Z,52.00
2017-11-07T14:47:46.209Z,47.80
2017-11-07T14:50:14.472Z,50.07
2017-11-07T14:52:41.965Z,51.70
2017-11-07T14:55:10.203Z,74.87
2017-11-07T14:57:37.704Z,66.60
2017-11-07T15:00:05.180Z,42.87
2017-11-07T15:02:32.660Z,50.53
2017-11-07T15:05:00.148Z,44.03
2017-11-07T15:07:27.624Z,44.57
2017-11-07T15:09:55.888Z,48.50
2017-11-07T15:12:24.132Z,47.20
2017-11-07T15:14:51.634Z,44.60
2017-11-07T15:17:19.881Z,42.40
2017-11-07T15:19:47.363Z,46.80
2017-11-07T15:22:15.619Z,40.70
2017-11-07T15:24:43.104Z,46.07
2017-11-07T15:27:11.366Z,45.10
2017-11-07T15:29:39.639Z,45.87
2017-11-07T15:32:07.137Z,43.20
2017-11-07T15:34:34.614Z,46.40
2017-11-07T15:37:02.099Z,46.43
2017-11-07T15:39:29.595Z,42.07
2017-11-07T15:41:57.857Z,42.47
2017-11-07T15:44:26.120Z,47.37
2017-11-07T15:46:53.584Z,44.27
2017-11-07T15:49:21.079Z,45.30
2017-11-07T15:51:48.575Z,48.37
2017-11-07T15:54:16.056Z,51.87
2017-11-07T15:56:43.544Z,54.77
2017-11-07T15:59:11.018Z,47.40
2017-11-07T16:01:38.513Z,40.03
2017-11-07T16:04:05.991Z,45.73
2017-11-07T16:06:33.568Z,44.00
2017-11-07T16:09:01.808Z,43.67
2017-11-07T16:11:29.288Z,43.40
2017-11-07T16:13:57.553Z,46.67
2017-11-07T16:16:25.792Z,44.20
2017-11-07T16:18:53.279Z,44.20
2017-11-07T16:21:20.766Z,47.50
2017-11-07T16:23:49.024Z,70.73
2017-11-07T16:26:16.515Z,45.40
2017-11-07T16:28:44.006Z,42.90
2017-11-07T16:31:11.508Z,42.07
2017-11-07T16:33:38.997Z,39.27
2017-11-07T16:36:06.498Z,53.50
2017-11-07T16:38:34.003Z,41.53
2017-11-07T16:41:02.250Z,44.93
2017-11-07T16:43:29.740Z,43.60
2017-11-07T16:45:57.975Z,45.87
2017-11-07T16:48:25.510Z,46.17
2017-11-07T16:50:53.055Z,49.20
2017-11-07T16:53:20.548Z,42.93
2017-11-07T16:55:48.037Z,50.73
2017-11-07T16:58:16.280Z,47.70
2017-11-07T17:00:44.564Z,50.27
2017-11-07T17:03:12.072Z,45.87
2017-11-07T17:05:39.576Z,52.77
2017-11-07T17:08:07.061Z,49.50
2017-11-07T17:10:35.324Z,45.57
2017-11-07T17:13:02.808Z,46.60
2017-11-07T17:15:31.056Z,44.23
2017-11-07T17:17:58.551Z,48.50
2017-11-07T17:20:26.787Z,44.80
2017-11-07T17:22:54.279Z,47.00
2017-11-07T17:25:22.536Z,46.80
2017-11-07T17:27:50.039Z,50.87
2017-11-07T17:30:17.551Z,58.40
2017-11-07T17:32:45.028Z,50.50
2017-11-07T17:35:13.333Z,54.90
2017-11-07T17:37:40.809Z,46.37
2017-11-07T17:40:08.308Z,44.87
2017-11-07T17:42:36.583Z,50.77
2017-11-07T17:45:04.058Z,53.27
2017-11-07T17:47:32.309Z,49.73
2017-11-07T17:50:00.605Z,43.30
2017-11-07T17:52:28.876Z,46.90
2017-11-07T17:54:57.148Z,52.37
2017-11-07T17:57:25.419Z,56.17
2017-11-07T19:35:54.248Z,26.40
2017-11-07T19:38:21.740Z,35.17
2017-11-07T19:40:49.255Z,30.10
2017-11-07T19:43:16.736Z,37.70
2017-11-07T19:45:44.215Z,36.67
2017-11-07T19:48:12.475Z,28.93
2017-11-07T19:50:39.984Z,30.57
2017-11-07T19:53:07.484Z,29.37
2017-11-07T19:55:34.971Z,32.43
2017-11-07T19:58:03.248Z,32.23
2017-11-07T20:00:31.487Z,32.43
2017-11-07T20:02:58.964Z,31.07
2017-11-07T20:05:26.455Z,29.93
2017-11-07T20:07:54.743Z,30.03
2017-11-07T20:10:22.236Z,30.60
2017-11-07T20:12:49.727Z,31.90
2017-11-07T20:15:17.231Z,34.27
2017-11-07T20:17:44.715Z,31.33
2017-11-07T20:20:12.203Z,27.37
2017-11-07T20:22:39.686Z,29.83
2017-11-07T20:25:07.180Z,31.57
2017-11-07T20:27:34.668Z,29.17
2017-11-07T20:30:02.997Z,32.07
2017-11-07T20:32:30.517Z,31.33
2017-11-07T20:34:58.025Z,35.13
2017-11-07T20:37:25.531Z,26.83
2017-11-07T20:39:54.536Z,34.03
2017-11-07T20:42:22.107Z,35.23
2017-11-07T20:44:50.365Z,38.17
2017-11-07T20:47:18.620Z,32.60
2017-11-07T20:49:46.115Z,37.77
2017-11-07T20:52:13.616Z,33.63
2017-11-07T20:54:41.088Z,33.33
2017-11-07T20:57:08.610Z,36.13
2017-11-07T20:59:36.102Z,30.97
2017-11-07T21:02:03.662Z,35.70
2017-11-07T21:04:31.135Z,30.00
2017-11-07T21:06:58.667Z,32.43
2017-11-07T21:09:26.157Z,31.50
2017-11-07T21:11:53.634Z,30.97
2017-11-07T21:14:21.913Z,29.30
2017-11-07T21:16:50.184Z,31.10
2017-11-07T21:19:18.444Z,36.30
2017-11-07T21:21:45.921Z,32.53
2017-11-07T21:24:14.201Z,34.73
2017-11-07T21:26:42.448Z,35.77
2017-11-07T21:29:09.933Z,31.40
2017-11-07T21:31:38.259Z,31.90
2017-11-07T21:34:05.740Z,28.70
2017-11-07T21:36:33.227Z,34.33
2017-11-07T21:39:01.488Z,31.23
2017-11-07T21:41:29.019Z,35.83
2017-11-07T21:43:56.488Z,27.37
2017-11-07T21:46:23.981Z,46.90
2017-11-07T21:48:52.232Z,32.27
2017-11-07T21:51:19.708Z,30.40
2017-11-07T21:53:47.967Z,33.80
2017-11-07T21:56:15.448Z,33.63
2017-11-07T21:58:43.711Z,30.83
2017-11-07T22:01:12.021Z,28.90
2017-11-07T22:03:39.500Z,28.27
2017-11-07T22:06:06.991Z,35.60
2017-11-07T22:08:34.472Z,30.03
2017-11-07T22:11:02.748Z,30.90
2017-11-07T22:13:30.997Z,30.17
2017-11-07T22:15:58.500Z,32.13
2017-11-07T22:18:26.747Z,35.30
2017-11-07T22:20:54.223Z,36.50
2017-11-07T22:23:26.299Z,38.90
2017-11-07T22:25:53.786Z,35.07
2017-11-07T22:28:21.278Z,32.83
2017-11-07T22:30:48.798Z,28.93
2017-11-07T22:33:16.299Z,32.23
2017-11-07T22:35:43.773Z,30.40
2017-11-07T22:38:12.036Z,34.63
2017-11-07T22:40:39.532Z,37.63
2017-11-07T22:43:07.774Z,36.53
2017-11-07T22:45:35.295Z,32.23
2017-11-07T22:48:02.772Z,36.27
2017-11-07T22:50:30.264Z,37.60
2017-11-07T22:52:58.514Z,38.53
2017-11-07T22:55:25.997Z,37.57
2017-11-07T22:57:53.519Z,37.23
2017-11-07T23:00:21.006Z,42.77
2017-11-07T23:02:48.500Z,40.50
2017-11-07T23:05:15.993Z,41.50
2017-11-07T23:07:43.491Z,38.90
2017-11-07T23:10:11.735Z,41.07
2017-11-07T23:12:39.219Z,39.90
2017-11-07T23:15:06.713Z,38.70
2017-11-07T23:17:34.196Z,41.40
2017-11-07T23:20:01.685Z,42.80
2017-11-07T23:22:29.159Z,45.53
2017-11-07T23:24:57.439Z,52.13
2017-11-07T23:27:25.693Z,47.30
2017-11-07T23:29:53.172Z,44.70
2017-11-07T23:32:21.428Z,47.20
2017-11-07T23:34:48.941Z,38.67
2017-11-07T23:37:16.432Z,43.93
2017-11-07T23:39:43.904Z,48.90
2017-11-07T23:42:11.399Z,40.20
2017-11-07T23:44:38.887Z,47.23
2017-11-07T23:47:06.370Z,43.60
2017-11-07T23:49:33.874Z,39.17
2017-11-07T23:52:02.112Z,41.50
2017-11-07T23:54:29.606Z,42.27
2017-11-07T23:56:57.904Z,47.00
2017-11-07T23:59:25.400Z,36.83
